Time;durP1;ratioP1;P1;durP2;ratioP2;P2;SDS_P1;SDS_P2;PMS_P1;PMS_P2;Temp;Humidity;BMP_temperature;BMP_pressure;BME280_temperature;BME280_humidity;BME280_pressure;Samples;Min_cycle;Max_cycle;Signal;HPM_P1;HPM_P2
2021/12/26 00:02:14;;;;;;;185.10;19.40;;;1.00;99.90;;;-0.13;100.00;96660.25;4984632;28;20093;-69
2021/12/26 00:04:41;;;;;;;209.02;19.83;;;1.10;99.90;;;-0.03;100.00;96654.13;4983053;28;20047;-69
2021/12/26 00:07:08;;;;;;;156.07;19.55;;;1.10;99.90;;;-0.11;100.00;96661.09;4985430;28;20058;-69
2021/12/26 00:09:35;;;;;;;112.40;16.08;;;1.20;99.90;;;-0.03;100.00;96664.34;4977911;28;20538;-69
2021/12/26 00:12:04;;;;;;;95.18;15.80;;;1.30;99.90;;;-0.01;100.00;96667.72;4981702;28;20046;-69
2021/12/26 00:14:31;;;;;;;97.80;17.65;;;1.30;99.90;;;0.07;100.00;96673.56;4980840;28;20057;-69
2021/12/26 00:16:58;;;;;;;180.40;20.55;;;1.30;99.90;;;0.16;100.00;96668.31;4983342;28;20137;-69
2021/12/26 00:19:24;;;;;;;373.45;26.13;;;1.30;99.90;;;0.10;100.00;96662.44;4983668;28;20074;-69
2021/12/26 00:21:51;;;;;;;316.52;26.30;;;1.30;99.90;;;0.04;100.00;96663.38;4979897;28;20134;-69
2021/12/26 00:24:19;;;;;;;187.00;17.63;;;1.30;99.90;;;0.06;100.00;96658.25;4981814;28;20043;-69
2021/12/26 00:26:46;;;;;;;299.52;25.05;;;1.30;99.90;;;-0.01;100.00;96653.25;4984771;28;20171;-69
2021/12/26 00:29:13;;;;;;;288.17;24.55;;;1.20;99.90;;;0.07;100.00;96649.72;4985783;28;20052;-69
2021/12/26 00:31:40;;;;;;;251.82;24.20;;;1.20;99.90;;;-0.04;100.00;96650.75;4984714;28;20050;-69
2021/12/26 00:34:07;;;;;;;167.95;21.38;;;1.20;99.90;;;-0.05;100.00;96650.75;4981307;28;20231;-69
2021/12/26 00:36:35;;;;;;;210.27;19.60;;;1.20;99.90;;;0.06;100.00;96646.34;4983064;28;20100;-69
2021/12/26 00:39:04;;;;;;;148.02;17.90;;;1.20;99.90;;;0.04;100.00;96650.63;4979341;28;20468;-69
2021/12/26 00:41:31;;;;;;;404.10;28.63;;;1.30;99.90;;;-0.07;100.00;96657.59;4985411;28;20065;-69
2021/12/26 00:43:57;;;;;;;257.15;23.73;;;1.20;99.90;;;-0.09;100.00;96654.22;4980907;28;20061;-69
2021/12/26 00:46:25;;;;;;;132.00;16.83;;;1.10;99.90;;;0.03;100.00;96661.69;4981066;28;20046;-69
2021/12/26 00:48:52;;;;;;;121.32;16.38;;;1.20;99.90;;;0.05;100.00;96654.88;4982389;28;20218;-69
2021/12/26 00:51:19;;;;;;;276.45;23.27;;;1.20;99.90;;;-0.05;100.00;96651.59;4984483;28;20048;-69
2021/12/26 00:53:46;;;;;;;285.42;26.75;;;1.20;99.90;;;-0.08;100.00;96653.38;4981914;28;20422;-69
2021/12/26 00:56:13;;;;;;;58.85;15.45;;;1.10;99.90;;;0.01;100.00;96655.78;4981539;28;20108;-69
2021/12/26 00:58:39;;;;;;;276.98;24.42;;;1.20;99.90;;;0.02;100.00;96654.06;4980018;28;20054;-69
2021/12/26 01:01:07;;;;;;;179.88;20.35;;;1.20;99.90;;;0.04;100.00;96648.06;4981181;28;20181;-69
2021/12/26 01:03:35;;;;;;;112.85;21.90;;;1.20;99.90;;;0.08;100.00;96652.25;4983441;28;20097;-69
2021/12/26 01:06:03;;;;;;;169.07;18.85;;;1.30;99.90;;;0.12;100.00;96653.06;4984180;28;21330;-69
2021/12/26 01:08:36;;;;;;;115.40;17.70;;;1.30;99.90;;;0.08;100.00;96647.16;4978777;28;20563;-69
2021/12/26 01:11:16;;;;;;;105.45;15.65;;;1.30;99.90;;;0.11;100.00;96648.81;4979259;28;20050;-69
2021/12/26 01:13:45;;;;;;;158.07;19.10;;;1.30;99.90;;;0.11;100.00;96653.91;4980680;28;20046;-69
2021/12/26 01:16:13;;;;;;;59.28;13.73;;;1.30;99.90;;;0.16;100.00;96644.47;4981746;28;20111;-69
2021/12/26 01:18:51;;;;;;;168.20;20.30;;;1.30;99.90;;;-0.01;100.00;96645.59;4982937;28;20051;-69
2021/12/26 01:21:24;;;;;;;42.67;14.65;;;1.20;99.90;;;0.08;100.00;96641.22;4980282;28;20129;-69
2021/12/26 01:23:57;;;;;;;100.90;16.98;;;1.30;99.90;;;0.13;100.00;96647.09;4979178;28;20069;-69
2021/12/26 01:26:25;;;;;;;78.90;15.63;;;1.30;99.90;;;0.11;100.00;96643.72;4979598;28;20050;-69
2021/12/26 01:28:53;;;;;;;36.42;13.85;;;1.30;99.90;;;0.12;100.00;96646.25;4981069;28;20142;-69
2021/12/26 01:31:22;;;;;;;180.73;19.02;;;1.30;99.90;;;0.16;100.00;96641.91;4986142;28;20046;-70
2021/12/26 01:33:55;;;;;;;26.13;11.75;;;1.30;99.90;;;0.23;100.00;96635.00;4980753;28;20049;-70
2021/12/26 01:36:23;;;;;;;84.18;15.30;;;1.40;99.90;;;0.03;100.00;96643.84;4980134;28;20138;-69
2021/12/26 01:38:50;;;;;;;117.20;17.23;;;1.40;99.90;;;0.08;100.00;96644.59;4983503;28;20038;-69
2021/12/26 01:41:18;;;;;;;41.58;11.98;;;1.30;99.90;;;-0.05;100.00;96645.66;4977261;28;20137;-69
2021/12/26 01:43:48;;;;;;;58.92;13.73;;;1.40;99.90;;;0.10;100.00;96647.97;4978310;28;20073;-69
2021/12/26 01:46:16;;;;;;;213.18;19.58;;;1.40;99.90;;;0.03;100.00;96648.94;4976454;28;20520;-69
2021/12/26 01:48:43;;;;;;;309.55;23.88;;;1.40;99.90;;;0.06;100.00;96653.16;4978918;28;20109;-69
2021/12/26 01:51:11;;;;;;;292.27;21.42;;;1.40;99.90;;;0.08;100.00;96657.38;4982880;28;20444;-69
2021/12/26 01:53:39;;;;;;;112.63;14.30;;;1.40;99.90;;;0.11;100.00;96662.41;4980644;28;20096;-69
2021/12/26 01:56:12;;;;;;;225.85;19.83;;;1.30;99.90;;;0.23;100.00;96655.41;4993408;28;20176;-69
2021/12/26 01:58:40;;;;;;;358.83;21.98;;;1.40;99.90;;;0.23;100.00;96660.53;4976172;28;20085;-69
2021/12/26 02:01:13;;;;;;;317.02;19.58;;;1.40;99.90;;;0.22;100.00;96662.25;4981323;28;20055;-69
2021/12/26 02:03:41;;;;;;;209.45;20.58;;;1.40;99.90;;;0.15;100.00;96658.09;4981591;28;20437;-69
2021/12/26 02:06:09;;;;;;;182.73;19.63;;;1.40;99.90;;;0.12;100.00;96659.00;4981872;28;20149;-69
2021/12/26 02:08:37;;;;;;;147.30;16.58;;;1.40;99.90;;;0.11;100.00;96664.13;4981608;28;20137;-69
2021/12/26 02:11:04;;;;;;;166.93;17.13;;;1.40;99.90;;;0.15;100.00;96660.66;4979509;28;20774;-69
2021/12/26 02:13:37;;;;;;;590.42;35.67;;;1.40;99.90;;;0.03;100.00;96660.88;4984657;28;20051;-69
2021/12/26 02:16:09;;;;;;;480.35;32.10;;;1.30;99.90;;;0.04;100.00;96654.88;4984424;28;20062;-69
2021/12/26 02:18:37;;;;;;;216.23;20.25;;;1.30;99.90;;;0.03;100.00;96648.94;4987451;28;20069;-70
2021/12/26 02:21:21;;;;;;;375.30;25.30;;;1.40;99.90;;;0.02;100.00;96639.59;4984607;28;20663;-69
2021/12/26 02:24:04;;;;;;;416.58;24.40;;;1.30;99.90;;;0.08;100.00;96644.59;4981847;28;20563;-69
2021/12/26 02:29:16;;;;;;;46.67;12.68;;;1.30;99.90;;;0.06;100.00;96641.22;4987228;28;20554;-69
2021/12/26 02:31:43;;;;;;;313.08;24.13;;;1.30;99.90;;;0.05;100.00;96646.38;4985746;28;20145;-70
2021/12/26 02:34:11;;;;;;;89.95;14.43;;;1.20;99.90;;;0.13;100.00;96640.25;4987143;28;20301;-70
2021/12/26 02:36:38;;;;;;;137.55;18.08;;;1.30;99.90;;;0.12;100.00;96637.75;4986312;28;20050;-69
2021/12/26 02:39:06;;;;;;;160.07;15.43;;;1.30;99.90;;;0.13;100.00;96645.38;4987812;28;20045;-69
2021/12/26 02:41:33;;;;;;;87.93;15.57;;;1.40;99.90;;;0.09;100.00;96645.44;4985631;28;20133;-69
2021/12/26 02:44:00;;;;;;;105.07;15.20;;;1.30;99.90;;;-0.02;100.00;96648.19;4984490;28;20602;-69
2021/12/26 02:46:27;;;;;;;175.05;18.40;;;1.30;99.90;;;0.04;100.00;96647.22;4981004;28;20757;-70
2021/12/26 02:48:54;;;;;;;121.70;15.85;;;1.30;99.90;;;0.08;100.00;96646.31;4984320;28;20077;-69
2021/12/26 02:51:21;;;;;;;138.40;17.77;;;1.30;99.90;;;0.10;100.00;96647.13;4982179;28;20043;-69
2021/12/26 02:53:49;;;;;;;292.35;24.35;;;1.30;99.90;;;0.11;100.00;96648.81;4988359;28;20129;-70
2021/12/26 02:56:18;;;;;;;389.10;24.95;;;1.30;99.90;;;0.18;100.00;96638.50;4987286;28;20118;-69
2021/12/26 02:58:45;;;;;;;351.83;25.40;;;1.40;99.90;;;0.06;100.00;96640.41;4981414;28;20156;-69
2021/12/26 03:01:17;;;;;;;223.13;20.25;;;1.30;99.90;;;-0.01;100.00;96637.94;4988640;28;20149;-69
2021/12/26 03:03:44;;;;;;;58.95;13.38;;;1.30;99.90;;;0.18;100.00;96641.06;4987370;28;20555;-69
2021/12/26 03:06:22;;;;;;;163.18;17.58;;;1.30;99.90;;;0.16;100.00;96640.22;4991289;28;20093;-69
2021/12/26 03:08:51;;;;;;;179.43;18.40;;;1.30;99.90;;;0.24;100.00;96635.00;4989878;28;20530;-69
2021/12/26 03:11:18;;;;;;;127.57;18.35;;;1.40;99.90;;;0.22;100.00;96638.44;4988477;28;20100;-69
2021/12/26 03:13:46;;;;;;;152.30;16.80;;;1.40;99.90;;;0.28;100.00;96633.25;4984009;28;20373;-69
2021/12/26 03:16:13;;;;;;;185.93;19.15;;;1.50;99.90;;;0.11;100.00;96636.06;4983072;28;20137;-70
2021/12/26 03:18:41;;;;;;;244.18;21.63;;;1.40;99.90;;;0.12;100.00;96635.19;4989862;28;20133;-69
2021/12/26 03:21:08;;;;;;;240.48;19.60;;;1.40;99.90;;;0.22;100.00;96633.34;4989643;28;20137;-69
2021/12/26 03:23:34;;;;;;;152.02;17.05;;;1.40;99.90;;;0.27;100.00;96631.53;4989273;28;20137;-69
2021/12/26 03:26:07;;;;;;;181.70;18.08;;;1.40;99.90;;;0.22;100.00;96626.50;4987640;28;20042;-69
2021/12/26 03:28:35;;;;;;;178.73;17.65;;;1.40;99.90;;;0.20;100.00;96633.34;4985475;28;20070;-70
2021/12/26 03:31:02;;;;;;;302.20;24.02;;;1.30;99.90;;;0.07;100.00;96624.22;4986242;28;20069;-69
2021/12/26 03:33:29;;;;;;;345.73;26.42;;;1.30;99.90;;;0.07;100.00;96629.31;4991104;28;20462;-69
2021/12/26 03:35:56;;;;;;;164.63;22.77;;;1.30;99.90;;;0.11;100.00;96628.41;4989142;28;20149;-70
2021/12/26 03:38:24;;;;;;;157.77;20.20;;;1.20;99.90;;;0.12;100.00;96633.50;4990002;28;20133;-69
2021/12/26 03:40:54;;;;;;;91.38;14.27;;;1.30;99.90;;;0.20;100.00;96631.63;4987433;28;20074;-69
2021/12/26 03:43:22;;;;;;;84.25;14.27;;;1.30;99.90;;;0.10;100.00;96635.22;5005330;28;20415;-70
2021/12/26 03:45:52;;;;;;;123.13;16.60;;;1.40;99.90;;;0.10;100.00;96637.78;4982195;28;20081;-69
2021/12/26 03:48:22;;;;;;;126.80;17.58;;;1.30;99.90;;;0.03;100.00;96636.19;4985328;28;20045;-69
2021/12/26 03:50:50;;;;;;;322.08;26.13;;;1.40;99.90;;;-0.09;100.00;96638.91;4985262;28;20471;-69
2021/12/26 03:53:17;;;;;;;197.88;22.50;;;1.20;99.90;;;-0.09;100.00;96633.81;4985524;28;20077;-69
2021/12/26 03:55:45;;;;;;;61.25;14.20;;;1.20;99.90;;;-0.03;100.00;96641.38;4986854;28;20070;-69
2021/12/26 03:58:12;;;;;;;288.50;23.80;;;1.20;99.90;;;-0.03;100.00;96639.66;4982982;28;20078;-70
2021/12/26 04:00:41;;;;;;;147.65;18.88;;;1.20;99.90;;;0.03;100.00;96638.75;4988670;28;20133;-70
2021/12/26 04:03:08;;;;;;;91.65;15.95;;;1.30;99.90;;;0.05;100.00;96642.13;4987021;28;20050;-70
2021/12/26 04:05:35;;;;;;;80.57;17.48;;;1.30;99.90;;;0.00;100.00;96633.69;4986879;28;20070;-70
2021/12/26 04:08:03;;;;;;;148.68;17.77;;;1.30;99.90;;;0.02;100.00;96631.09;4988623;28;20121;-69
2021/12/26 04:10:31;;;;;;;138.98;17.83;;;1.20;99.90;;;0.09;100.00;96633.53;4984102;28;20097;-70
2021/12/26 04:12:59;;;;;;;96.30;16.83;;;1.30;99.90;;;0.08;100.00;96638.66;4985234;28;20590;-70
2021/12/26 04:15:29;;;;;;;139.02;20.27;;;1.30;99.90;;;-0.02;100.00;96628.63;4989597;28;20180;-69
2021/12/26 04:17:57;;;;;;;77.68;16.10;;;1.30;99.90;;;0.01;100.00;96632.81;4983100;28;20471;-69
2021/12/26 04:20:28;;;;;;;49.60;13.68;;;1.20;99.90;;;0.02;100.00;96633.66;4989261;28;20050;-69
2021/12/26 04:22:57;;;;;;;70.50;14.52;;;1.30;99.90;;;0.04;100.00;96634.47;5002834;28;20116;-69
2021/12/26 04:25:25;;;;;;;84.63;16.10;;;1.30;99.90;;;0.22;100.00;96630.78;4989593;28;20072;-69
2021/12/26 04:27:54;;;;;;;148.40;21.42;;;1.40;99.90;;;0.13;100.00;96632.59;4986650;28;20470;-70
2021/12/26 04:30:23;;;;;;;102.03;17.73;;;1.30;99.90;;;0.17;100.00;96623.19;4986048;28;20577;-70
2021/12/26 04:32:50;;;;;;;128.43;18.75;;;1.40;99.90;;;0.11;100.00;96624.13;4981722;28;20127;-69
2021/12/26 04:35:18;;;;;;;44.38;15.43;;;1.40;99.90;;;0.11;100.00;96629.22;4986997;28;20125;-70
2021/12/26 04:37:46;;;;;;;140.63;20.42;;;1.30;99.90;;;0.05;100.00;96634.47;4985833;28;20129;-70
2021/12/26 04:40:16;;;;;;;106.88;17.33;;;1.30;99.90;;;-0.07;100.00;96625.28;4986195;28;20137;-70
2021/12/26 04:42:45;;;;;;;72.90;15.73;;;1.20;99.90;;;-0.02;100.00;96630.31;4985553;28;20499;-69
2021/12/26 04:45:14;;;;;;;72.53;16.58;;;1.20;99.90;;;0.03;100.00;96622.59;4984520;28;20077;-69
2021/12/26 04:47:43;;;;;;;59.25;15.75;;;1.20;99.90;;;0.02;100.00;96631.09;4985143;28;20145;-70
2021/12/26 04:50:17;;;;;;;42.92;14.43;;;1.20;99.90;;;0.04;100.00;96634.47;4985441;28;20573;-69
2021/12/26 04:52:45;;;;;;;116.25;18.75;;;1.20;99.90;;;0.04;100.00;96625.09;4990452;28;20128;-69
2021/12/26 04:55:17;;;;;;;67.20;17.05;;;1.20;99.90;;;-0.01;100.00;96627.72;4978024;28;20169;-69
2021/12/26 04:57:44;;;;;;;39.95;14.18;;;1.30;99.90;;;0.04;100.00;96632.75;4968652;28;20149;-69
2021/12/26 05:00:18;;;;;;;49.05;13.68;;;1.30;99.90;;;0.07;100.00;96636.97;4985232;28;20142;-69
2021/12/26 05:02:48;;;;;;;39.53;11.75;;;1.30;99.90;;;0.23;100.00;96635.00;4986557;28;20129;-69
2021/12/26 05:05:15;;;;;;;32.90;12.40;;;1.30;99.90;;;0.26;100.00;96642.63;4986695;28;20073;-69
2021/12/26 05:07:43;;;;;;;62.92;16.08;;;1.40;99.90;;;0.18;100.00;96641.06;4985256;28;20078;-69
2021/12/26 05:10:14;;;;;;;114.00;15.80;;;1.40;99.90;;;0.24;100.00;96644.34;4982430;28;20064;-70
2021/12/26 05:12:41;;;;;;;183.02;18.90;;;1.40;99.90;;;0.11;100.00;96646.25;4987236;28;20494;-69
2021/12/26 05:15:12;;;;;;;96.88;15.70;;;1.30;99.90;;;0.21;100.00;96642.72;4987523;28;20058;-69
2021/12/26 05:17:44;;;;;;;243.90;20.60;;;1.40;99.90;;;0.20;100.00;96636.75;4982115;28;20065;-69
2021/12/26 05:20:12;;;;;;;242.90;19.45;;;1.40;99.90;;;0.21;100.00;96640.16;4987445;28;20423;-69
2021/12/26 05:22:40;;;;;;;98.75;15.30;;;1.40;99.90;;;0.31;100.00;96630.63;4988417;28;20074;-69
2021/12/26 05:25:08;;;;;;;89.53;15.35;;;1.40;99.90;;;0.31;100.00;96631.47;4980415;28;20053;-69
2021/12/26 05:27:35;;;;;;;300.70;24.08;;;1.50;99.90;;;0.24;100.00;96629.88;4984582;28;20070;-69
2021/12/26 05:30:06;;;;;;;258.52;21.35;;;1.40;99.90;;;0.17;100.00;96616.38;4986544;28;20085;-69
2021/12/26 05:32:34;;;;;;;210.82;21.73;;;1.40;99.90;;;0.08;100.00;96613.97;4986958;28;20065;-69
2021/12/26 05:35:01;;;;;;;208.43;21.23;;;1.30;99.90;;;-0.05;100.00;96620.16;4984968;28;20141;-70
2021/12/26 05:37:28;;;;;;;102.10;14.52;;;1.30;99.90;;;0.06;100.00;96615.72;4985945;28;20137;-69
2021/12/26 05:39:56;;;;;;;187.50;16.27;;;1.30;99.90;;;0.07;100.00;96616.56;4985244;28;20125;-69
2021/12/26 05:42:24;;;;;;;104.93;17.70;;;1.30;99.90;;;0.00;100.00;96618.38;4985440;28;20233;-69
2021/12/26 05:44:52;;;;;;;43.45;12.70;;;1.30;99.90;;;-0.01;100.00;96622.63;4987546;28;20047;-69
2021/12/26 05:47:19;;;;;;;35.58;11.45;;;1.30;99.90;;;0.06;100.00;96627.63;5002655;28;20050;-69
2021/12/26 05:49:45;;;;;;;54.97;13.70;;;1.30;99.90;;;0.16;100.00;96618.94;4987498;28;20042;-69
2021/12/26 05:52:13;;;;;;;52.50;14.05;;;1.30;99.90;;;0.14;100.00;96616.44;4985390;28;20050;-69
2021/12/26 05:54:40;;;;;;;23.40;10.38;;;1.30;99.90;;;0.21;100.00;96617.19;4986806;28;20077;-69
2021/12/26 05:57:07;;;;;;;40.88;13.98;;;1.40;99.90;;;0.15;100.00;96610.47;4984132;28;20514;-69
2021/12/26 05:59:34;;;;;;;36.00;12.25;;;1.30;99.90;;;0.16;100.00;96616.41;4984972;28;20050;-69
2021/12/26 06:02:02;;;;;;;41.80;11.52;;;1.40;99.90;;;0.20;100.00;96618.88;4987561;28;20050;-69
2021/12/26 06:04:30;;;;;;;47.88;13.52;;;1.40;99.90;;;0.17;100.00;96618.09;4985492;28;20050;-69
2021/12/26 06:06:58;;;;;;;46.70;13.07;;;1.40;99.90;;;0.12;100.00;96618.19;4985100;28;20153;-69
2021/12/26 06:09:25;;;;;;;74.28;14.88;;;1.50;99.90;;;0.15;100.00;96620.66;4986428;28;20129;-69
2021/12/26 06:11:52;;;;;;;57.85;14.40;;;1.40;99.90;;;0.22;100.00;96623.13;4987906;28;20473;-69
2021/12/26 06:14:19;;;;;;;165.80;21.75;;;1.40;99.90;;;0.02;100.00;96616.63;4986905;28;20096;-70
2021/12/26 06:16:47;;;;;;;53.75;13.93;;;1.30;99.90;;;0.07;100.00;96625.06;4980305;28;20089;-70
2021/12/26 06:19:14;;;;;;;52.97;14.88;;;1.30;99.90;;;0.22;100.00;96618.03;4982504;28;20162;-69
2021/12/26 06:21:41;;;;;;;24.85;11.35;;;1.40;99.90;;;0.17;100.00;96615.53;4984548;28;20050;-69
2021/12/26 06:24:08;;;;;;;34.38;13.75;;;1.40;99.90;;;0.18;100.00;96614.66;4982038;28;20220;-69
2021/12/26 06:26:36;;;;;;;79.57;15.73;;;1.40;99.90;;;0.25;100.00;96623.94;4984015;28;20134;-70
2021/12/26 06:29:03;;;;;;;47.50;14.18;;;1.40;99.90;;;0.27;100.00;96621.31;4986625;28;20125;-70
2021/12/26 06:31:30;;;;;;;75.18;14.35;;;1.40;99.90;;;0.28;100.00;96615.38;4967944;28;20089;-69
2021/12/26 06:33:57;;;;;;;121.43;15.80;;;1.50;99.90;;;0.33;100.00;96621.22;4986614;28;20501;-69
2021/12/26 06:36:24;;;;;;;48.92;12.63;;;1.50;99.90;;;0.31;100.00;96628.06;4984675;28;20145;-69
2021/12/26 06:38:52;;;;;;;26.38;11.90;;;1.50;99.90;;;0.33;100.00;96614.41;4986410;28;20065;-69
2021/12/26 06:41:19;;;;;;;36.50;11.18;;;1.50;99.90;;;0.25;100.00;96617.97;4985561;28;20120;-69
2021/12/26 06:43:46;;;;;;;33.15;12.85;;;1.50;99.90;;;0.40;100.00;96623.63;4984309;28;20042;-69
2021/12/26 06:46:15;;;;;;;49.05;12.55;;;1.50;99.90;;;0.38;100.00;96616.88;4982556;28;20229;-69
2021/12/26 06:48:42;;;;;;;90.95;13.68;;;1.50;99.90;;;0.29;100.00;96625.53;4985577;28;20039;-69
2021/12/26 06:51:10;;;;;;;58.17;12.60;;;1.60;99.90;;;0.36;100.00;96628.81;4984039;28;20078;-69
2021/12/26 06:53:37;;;;;;;37.83;10.65;;;1.60;99.90;;;0.51;100.00;96627.72;4989082;28;20125;-69
2021/12/26 06:56:05;;;;;;;30.92;12.30;;;1.60;99.90;;;0.35;100.00;96624.59;4982664;28;20145;-69
2021/12/26 06:58:32;;;;;;;64.72;14.25;;;1.60;99.90;;;0.25;100.00;96626.47;4986485;28;20138;-69
2021/12/26 07:00:59;;;;;;;59.55;12.65;;;1.60;99.90;;;0.34;100.00;96620.34;4985237;28;20459;-69
2021/12/26 07:03:27;;;;;;;37.40;12.02;;;1.60;99.90;;;0.31;100.00;96623.81;4990922;28;20125;-69
2021/12/26 07:05:54;;;;;;;25.00;11.20;;;1.60;99.90;;;0.37;100.00;96621.16;4988535;28;20129;-70
2021/12/26 07:08:21;;;;;;;38.50;11.70;;;1.60;99.90;;;0.32;100.00;96628.06;4992401;28;20591;-69
2021/12/26 07:10:48;;;;;;;37.17;11.48;;;1.60;99.90;;;0.35;100.00;96633.09;4985954;28;20165;-69
2021/12/26 07:13:15;;;;;;;25.83;10.95;;;1.60;99.90;;;0.45;100.00;96630.38;4991580;28;20073;-70
2021/12/26 07:15:42;;;;;;;33.80;10.48;;;1.60;99.90;;;0.50;100.00;96632.00;4991358;28;20153;-69
2021/12/26 07:18:09;;;;;;;69.57;13.02;;;1.60;99.90;;;0.35;100.00;96629.72;4988785;28;20088;-69
2021/12/26 07:20:37;;;;;;;36.03;11.00;;;1.60;99.90;;;0.33;100.00;96636.53;4986621;28;20078;-69
2021/12/26 07:23:05;;;;;;;54.78;11.88;;;1.60;99.90;;;0.38;100.00;96635.59;4985014;28;20089;-69
2021/12/26 07:25:32;;;;;;;29.42;9.68;;;1.60;99.90;;;0.48;100.00;96637.97;4988102;28;20062;-69
2021/12/26 07:27:59;;;;;;;23.77;10.60;;;1.60;99.90;;;0.39;100.00;96639.84;4985413;28;20149;-69
2021/12/26 07:30:27;;;;;;;25.08;10.00;;;1.60;99.90;;;0.43;100.00;96637.22;4988979;28;20066;-69
2021/12/26 07:32:54;;;;;;;20.88;10.20;;;1.60;99.90;;;0.44;100.00;96644.03;4986375;28;20380;-69
2021/12/26 07:35:21;;;;;;;33.90;11.00;;;1.70;99.90;;;0.42;100.00;96633.84;4986561;28;20133;-69
2021/12/26 07:37:48;;;;;;;37.03;12.82;;;1.70;99.90;;;0.48;100.00;96643.94;4982778;28;20153;-69
2021/12/26 07:40:15;;;;;;;33.03;10.73;;;1.70;99.90;;;0.54;100.00;96645.53;4986126;28;20056;-69
2021/12/26 07:42:42;;;;;;;20.40;9.38;;;1.70;99.90;;;0.65;100.00;96638.53;4983485;28;20137;-69
2021/12/26 07:45:10;;;;;;;34.00;11.52;;;1.70;99.90;;;0.54;100.00;96637.88;4986843;28;20458;-69
2021/12/26 07:47:39;;;;;;;19.48;10.18;;;1.70;99.90;;;0.55;100.00;96637.84;4988723;28;20125;-69
2021/12/26 07:50:07;;;;;;;27.02;10.20;;;1.70;99.90;;;0.60;100.00;96643.72;4985609;28;20050;-69
2021/12/26 07:52:39;;;;;;;58.90;13.02;;;1.80;99.90;;;0.68;100.00;96650.38;4984556;28;20818;-69
2021/12/26 07:55:11;;;;;;;27.95;10.13;;;1.80;99.90;;;0.74;100.00;96640.91;4984661;28;20243;-69
2021/12/26 07:57:38;;;;;;;37.10;12.65;;;1.80;99.90;;;0.58;100.00;96642.91;4983894;28;20279;-69
2021/12/26 08:00:07;;;;;;;32.15;11.70;;;1.80;99.90;;;0.62;100.00;96638.59;4986550;28;20061;-69
2021/12/26 08:02:36;;;;;;;40.15;12.43;;;1.80;99.90;;;0.51;100.00;96633.66;4986923;28;20070;-69
2021/12/26 08:05:03;;;;;;;25.33;11.80;;;1.70;99.90;;;0.39;100.00;96627.06;4983567;28;20050;-70
2021/12/26 08:07:32;;;;;;;32.15;10.63;;;1.60;99.90;;;0.54;100.00;96635.31;4986275;28;20096;-69
2021/12/26 08:09:59;;;;;;;24.05;10.48;;;1.70;99.90;;;0.45;100.00;96635.47;4984403;28;20471;-70
2021/12/26 08:12:27;;;;;;;22.13;10.00;;;1.70;99.90;;;0.61;100.00;96630.06;4987486;28;20050;-70
2021/12/26 08:14:54;;;;;;;18.40;9.48;;;1.70;99.90;;;0.65;100.00;96643.63;4987055;28;20129;-69
2021/12/26 08:17:21;;;;;;;19.52;8.98;;;1.80;99.90;;;0.67;100.00;96647.00;4983335;28;20060;-69
2021/12/26 08:19:48;;;;;;;17.10;8.57;;;1.90;99.90;;;0.86;100.00;96642.38;4985675;28;20120;-69
2021/12/26 08:22:15;;;;;;;20.75;9.18;;;1.90;99.90;;;0.90;100.00;96653.38;4987656;28;20546;-69
2021/12/26 08:24:43;;;;;;;19.83;8.82;;;2.00;99.90;;;0.82;100.00;96648.41;4986063;28;20134;-69
2021/12/26 08:27:10;;;;;;;31.90;12.25;;;2.00;99.90;;;0.78;100.00;96655.31;4984387;28;20137;-70
2021/12/26 08:29:37;;;;;;;30.75;11.30;;;2.00;99.90;;;0.80;100.00;96650.19;4985608;28;20141;-69
2021/12/26 08:32:06;;;;;;;19.77;10.25;;;1.90;99.90;;;0.60;100.00;96651.38;4981501;28;20074;-70
2021/12/26 08:34:33;;;;;;;38.50;12.55;;;2.00;99.90;;;0.67;100.00;96653.81;4980648;28;20097;-69
2021/12/26 08:37:03;;;;;;;82.47;11.98;;;2.00;99.90;;;0.61;100.00;96654.75;4982039;28;20057;-69
2021/12/26 08:39:41;;;;;;;31.50;11.18;;;2.00;99.90;;;0.83;100.00;96660.31;4980294;28;20529;-69
2021/12/26 08:42:10;;;;;;;156.63;15.30;;;2.00;99.90;;;0.89;100.00;96659.34;4986295;28;20586;-70
2021/12/26 08:44:38;;;;;;;361.58;23.38;;;2.00;99.90;;;0.74;100.00;96651.13;4984793;28;20141;-69
2021/12/26 08:47:08;;;;;;;459.50;28.95;;;2.00;99.90;;;0.73;100.00;96659.66;4984661;28;20129;-69
2021/12/26 08:49:36;;;;;;;433.17;26.95;;;1.90;99.90;;;0.60;100.00;96647.97;4984307;28;20046;-69
2021/12/26 08:52:06;;;;;;;467.80;28.40;;;2.00;99.90;;;0.64;100.00;96649.63;4985805;28;20138;-69
2021/12/26 08:54:36;;;;;;;367.60;25.92;;;1.90;99.90;;;0.72;100.00;96662.25;4989213;28;20405;-70
2021/12/26 08:57:06;;;;;;;281.67;23.95;;;1.90;99.90;;;0.63;100.00;96658.97;4984560;28;20050;-69
2021/12/26 08:59:35;;;;;;;644.78;27.80;;;1.90;99.90;;;0.73;100.00;96658.81;4985586;28;20606;-69
2021/12/26 09:02:06;;;;;;;565.92;36.88;;;1.90;99.90;;;0.62;100.00;96666.69;4986199;28;20073;-69
2021/12/26 09:04:36;;;;;;;293.17;23.15;;;1.90;99.90;;;0.68;100.00;96673.38;4982845;28;20050;-69
2021/12/26 09:07:04;;;;;;;485.40;29.83;;;1.90;99.90;;;0.61;100.00;96664.97;4988645;28;20489;-69
2021/12/26 09:09:32;;;;;;;458.50;30.42;;;1.90;99.90;;;0.62;100.00;96670.06;4989398;28;20084;-69
2021/12/26 09:12:00;;;;;;;321.20;26.15;;;1.90;99.90;;;0.72;100.00;96668.19;4988128;28;20160;-69
2021/12/26 09:14:29;;;;;;;306.65;25.35;;;2.00;99.90;;;0.67;100.00;96666.59;4986509;28;20487;-69
2021/12/26 09:16:58;;;;;;;365.63;28.15;;;2.00;99.90;;;0.74;100.00;96666.44;4965722;28;20133;-69
2021/12/26 09:19:28;;;;;;;393.88;29.30;;;1.90;99.90;;;0.75;100.00;96668.16;4986150;28;20049;-69
2021/12/26 09:21:57;;;;;;;506.85;27.77;;;2.00;99.90;;;0.88;100.00;96673.00;4983880;28;20038;-69
2021/12/26 09:24:24;;;;;;;314.90;26.17;;;2.00;99.90;;;0.83;100.00;96680.75;4986414;28;20526;-69
2021/12/26 09:26:51;;;;;;;405.55;28.80;;;2.00;99.90;;;0.73;100.00;96682.66;4985770;28;20275;-69
2021/12/26 09:29:18;;;;;;;304.77;24.95;;;2.10;99.90;;;0.73;100.00;96681.78;4986970;28;20129;-69
2021/12/26 09:31:46;;;;;;;612.55;35.90;;;2.10;99.90;;;0.83;100.00;96686.72;4986322;28;20074;-69
2021/12/26 09:34:14;;;;;;;601.25;32.33;;;2.10;99.90;;;0.82;100.00;96687.59;4988591;28;20089;-69
2021/12/26 09:36:44;;;;;;;216.95;22.33;;;2.10;99.90;;;0.88;100.00;96678.13;4982827;28;20490;-69
2021/12/26 09:39:11;;;;;;;153.70;21.33;;;2.10;99.90;;;0.80;100.00;96683.38;4984734;28;20078;-69
2021/12/26 09:41:39;;;;;;;254.50;19.90;;;2.20;99.90;;;0.87;100.00;96678.97;4985222;28;20057;-69
2021/12/26 09:44:08;;;;;;;179.40;18.40;;;2.20;99.90;;;0.85;100.00;96684.13;4986481;28;20146;-69
2021/12/26 09:46:36;;;;;;;46.45;13.70;;;2.10;99.90;;;0.87;100.00;96677.28;4980791;28;20046;-70
2021/12/26 09:49:04;;;;;;;76.20;14.63;;;2.20;99.90;;;0.98;100.00;96684.72;4968858;28;20046;-70
2021/12/26 09:51:32;;;;;;;70.38;12.70;;;2.20;99.90;;;0.93;100.00;96672.03;4983732;28;20054;-70
2021/12/26 09:54:01;;;;;;;53.03;10.80;;;2.10;99.90;;;0.81;100.00;96675.69;4984124;28;20081;-69
2021/12/26 09:56:28;;;;;;;49.13;10.85;;;2.20;99.90;;;0.75;100.00;96678.38;4984431;28;20535;-69
2021/12/26 09:59:18;;;;;;;31.95;9.65;;;2.10;99.90;;;0.92;100.00;96684.88;4984592;28;20129;-69
2021/12/26 10:01:53;;;;;;;23.95;9.63;;;2.10;99.90;;;0.88;100.00;96670.47;4989224;28;20172;-70
2021/12/26 10:04:42;;;;;;;16.58;7.80;;;2.10;99.90;;;0.97;100.00;96681.34;4985758;28;20051;-69
2021/12/26 10:07:22;;;;;;;17.42;8.15;;;2.20;99.90;;;0.95;100.00;96680.53;4984209;28;20129;-69
2021/12/26 10:09:51;;;;;;;12.18;6.15;;;2.20;99.90;;;0.99;100.00;96681.31;4981432;28;20130;-69
2021/12/26 10:12:20;;;;;;;15.93;5.97;;;2.10;99.90;;;1.01;100.00;96665.09;4984788;28;20133;-69
2021/12/26 10:14:52;;;;;;;10.48;5.72;;;2.10;99.90;;;0.87;100.00;96676.44;4983697;28;20508;-69
2021/12/26 10:17:26;;;;;;;21.55;7.88;;;2.10;99.90;;;0.96;100.00;96666.06;4977750;28;20093;-70